createdAt,value
2018-02-21T00:00:36.044Z,74.64
2018-02-21T00:01:36.007Z,74.36
2018-02-21T00:02:36.011Z,74.74
2018-02-21T00:03:35.955Z,74.64
2018-02-21T00:04:35.927Z,74.74
2018-02-21T00:05:35.900Z,74.93
2018-02-21T00:06:35.868Z,74.55
2018-02-21T00:07:35.843Z,74.93
2018-02-21T00:08:35.813Z,74.74
2018-02-21T00:09:35.786Z,74.83
2018-02-21T00:10:35.758Z,75.07
2018-02-21T00:11:35.731Z,74.83
2018-02-21T00:12:35.704Z,74.74
2018-02-21T00:13:35.677Z,75.12
2018-02-21T00:14:35.648Z,75.17
2018-02-21T00:15:35.623Z,74.88
2018-02-21T00:16:35.592Z,75.12
2018-02-21T00:17:35.567Z,75.21
2018-02-21T00:18:35.538Z,74.93
2018-02-21T00:19:35.515Z,74.83
2018-02-21T00:20:35.484Z,75.55
2018-02-21T00:21:35.453Z,74.98
2018-02-21T00:22:35.471Z,75.59
2018-02-21T00:23:35.401Z,75.31
2018-02-21T00:24:35.370Z,75.17
2018-02-21T00:25:35.343Z,75.68
2018-02-21T00:26:35.331Z,76.15
2018-02-21T00:27:35.287Z,75.74
2018-02-21T00:28:35.262Z,76.44
2018-02-21T00:29:35.237Z,76.21
2018-02-21T00:30:35.205Z,76.50
2018-02-21T00:31:35.185Z,76.40
2018-02-21T00:32:35.161Z,76.31
2018-02-21T00:33:35.121Z,76.31
2018-02-21T00:34:35.098Z,76.40
2018-02-21T00:35:35.115Z,76.78
2018-02-21T00:36:35.038Z,76.59
2018-02-21T00:37:35.011Z,76.40
2018-02-21T00:38:34.984Z,77.15
2018-02-21T00:39:34.953Z,77.06
2018-02-21T00:40:34.928Z,76.50
2018-02-21T00:41:34.903Z,76.21
2018-02-21T00:42:34.872Z,76.59
2018-02-21T00:43:34.846Z,76.21
2018-02-21T00:44:34.816Z,76.31
2018-02-21T00:45:34.789Z,76.68
2018-02-21T00:46:34.766Z,76.50
2018-02-21T00:47:34.734Z,76.78
2018-02-21T00:48:34.710Z,76.59
2018-02-21T00:49:34.681Z,76.40
2018-02-21T00:50:34.654Z,76.50
2018-02-21T00:51:34.623Z,77.34
2018-02-21T00:52:34.595Z,76.97
2018-02-21T00:53:34.566Z,76.78
2018-02-21T00:54:34.537Z,77.53
2018-02-21T00:55:34.514Z,77.34
2018-02-21T00:56:34.506Z,77.15
2018-02-21T00:57:34.454Z,76.59
2018-02-21T00:58:34.438Z,77.25
2018-02-21T00:59:34.405Z,77.25
2018-02-21T01:00:34.376Z,76.59
2018-02-21T01:01:34.361Z,76.40
2018-02-21T01:02:34.334Z,77.34
2018-02-21T01:03:34.298Z,76.87
2018-02-21T01:04:34.278Z,77.53
2018-02-21T01:05:34.245Z,77.25
2018-02-21T01:06:34.227Z,77.25
2018-02-21T01:07:34.210Z,77.53
2018-02-21T01:08:34.149Z,76.87
2018-02-21T01:09:34.133Z,77.34
2018-02-21T01:10:34.098Z,76.87
2018-02-21T01:11:34.065Z,76.87
2018-02-21T01:12:34.042Z,76.87
2018-02-21T01:13:34.014Z,77.25
2018-02-21T01:14:33.983Z,76.97
2018-02-21T01:15:33.961Z,77.06
2018-02-21T01:16:33.925Z,76.40
2018-02-21T01:17:33.922Z,76.87
2018-02-21T01:18:33.878Z,77.15
2018-02-21T01:19:33.845Z,77.06
2018-02-21T01:20:33.815Z,76.78
2018-02-21T01:21:33.790Z,76.31
2018-02-21T01:22:33.761Z,77.15
2018-02-21T01:23:33.734Z,76.59
2018-02-21T01:24:33.703Z,76.59
2018-02-21T01:25:33.679Z,76.78
2018-02-21T01:26:33.649Z,77.25
2018-02-21T01:27:33.620Z,77.25
2018-02-21T01:28:33.597Z,76.68
2018-02-21T01:29:33.563Z,76.87
2018-02-21T01:30:33.536Z,77.06
2018-02-21T01:31:33.508Z,77.06
2018-02-21T01:32:33.483Z,77.06
2018-02-21T01:33:33.455Z,77.06
2018-02-21T01:34:33.429Z,77.15
2018-02-21T01:35:33.396Z,76.40
2018-02-21T01:36:33.373Z,76.87
2018-02-21T01:37:33.351Z,76.97
2018-02-21T01:38:33.319Z,76.40
2018-02-21T01:39:33.284Z,76.40
2018-02-21T01:40:33.293Z,77.06
2018-02-21T01:41:33.228Z,76.87
2018-02-21T01:42:33.201Z,77.15
2018-02-21T01:43:33.180Z,76.59
2018-02-21T01:44:33.148Z,76.50
2018-02-21T01:45:33.123Z,77.06
2018-02-21T01:46:33.095Z,76.50
2018-02-21T01:47:33.066Z,76.97
2018-02-21T01:48:33.032Z,76.68
2018-02-21T01:49:33.012Z,76.31
2018-02-21T01:50:32.988Z,76.50
2018-02-21T01:51:32.954Z,76.59
2018-02-21T01:52:32.921Z,76.59
2018-02-21T01:53:32.904Z,76.68
2018-02-21T01:54:32.869Z,76.50
2018-02-21T01:55:32.836Z,76.50
2018-02-21T01:56:32.807Z,76.50
2018-02-21T01:57:32.782Z,76.31
2018-02-21T01:58:32.755Z,76.21
2018-02-21T01:59:32.724Z,76.21
2018-02-21T02:00:32.697Z,76.40
2018-02-21T02:01:32.673Z,76.78
2018-02-21T02:02:32.641Z,76.59
2018-02-21T02:03:32.618Z,76.40
2018-02-21T02:04:32.584Z,76.26
2018-02-21T02:05:32.557Z,76.21
2018-02-21T02:06:32.537Z,76.50
2018-02-21T02:07:32.500Z,76.59
2018-02-21T02:08:32.473Z,76.36
2018-02-21T02:09:32.452Z,76.68
2018-02-21T02:10:32.457Z,76.55
2018-02-21T02:11:32.421Z,76.64
2018-02-21T02:12:32.367Z,76.26
2018-02-21T02:13:32.334Z,76.59
2018-02-21T02:14:32.310Z,76.83
2018-02-21T02:15:32.276Z,76.55
2018-02-21T02:16:32.255Z,76.45
2018-02-21T02:17:32.229Z,76.45
2018-02-21T02:18:32.195Z,76.45
2018-02-21T02:19:32.171Z,77.21
2018-02-21T02:20:32.134Z,77.21
2018-02-21T02:21:32.108Z,76.93
2018-02-21T02:22:32.079Z,76.93
2018-02-21T02:23:32.052Z,77.31
2018-02-21T02:24:32.026Z,77.12
2018-02-21T02:25:31.994Z,77.02
2018-02-21T02:26:31.967Z,76.55
2018-02-21T02:27:31.936Z,76.93
2018-02-21T02:28:31.917Z,76.36
2018-02-21T02:29:31.884Z,76.45
2018-02-21T02:30:31.855Z,76.55
2018-02-21T02:31:31.833Z,76.55
2018-02-21T02:32:31.800Z,76.55
2018-02-21T02:33:31.768Z,76.36
2018-02-21T02:34:31.746Z,76.36
2018-02-21T02:35:31.714Z,76.45
2018-02-21T02:36:31.686Z,76.26
2018-02-21T02:37:31.658Z,76.45
2018-02-21T02:38:31.633Z,76.36
2018-02-21T02:41:06.190Z,75.98
2018-02-21T02:42:06.149Z,75.79
2018-02-21T02:43:59.537Z,76.07
2018-02-21T02:44:59.495Z,76.55
2018-02-21T02:46:52.811Z,76.36
2018-02-21T02:47:52.763Z,76.45
2018-02-21T02:49:46.112Z,76.07
2018-02-21T02:50:47.219Z,76.36
2018-02-21T02:52:39.419Z,75.89
2018-02-21T02:53:39.366Z,76.36
2018-02-21T02:55:32.712Z,76.17
2018-02-21T02:56:32.663Z,76.36
2018-02-21T02:58:26.054Z,75.89
2018-02-21T02:59:25.973Z,76.36
2018-02-21T03:01:19.315Z,76.36
2018-02-21T03:02:19.278Z,76.55
2018-02-21T03:04:13.483Z,76.36
2018-02-21T03:05:13.429Z,76.17
2018-02-21T03:07:09.297Z,76.17
2018-02-21T03:08:09.255Z,76.55
2018-02-21T03:10:02.622Z,76.36
2018-02-21T03:11:02.596Z,76.45
2018-02-21T03:12:58.453Z,76.64
2018-02-21T03:13:58.408Z,76.36
2018-02-21T03:15:51.749Z,76.45
2018-02-21T03:16:51.704Z,76.36
2018-02-21T03:18:47.590Z,76.45
2018-02-21T03:19:47.500Z,76.26
2018-02-21T03:21:40.843Z,76.55
2018-02-21T03:22:40.835Z,76.36
2018-02-21T03:24:34.148Z,76.74
2018-02-21T03:25:34.096Z,76.45
2018-02-21T03:27:27.481Z,76.55
2018-02-21T03:28:27.432Z,76.55
2018-02-21T03:30:20.789Z,76.64
2018-02-21T03:31:20.745Z,76.26
2018-02-21T03:33:14.089Z,76.07
2018-02-21T03:34:14.044Z,76.36
2018-02-21T03:36:09.921Z,76.26
2018-02-21T03:37:09.879Z,76.26
2018-02-21T03:39:03.225Z,76.55
2018-02-21T03:40:03.179Z,76.26
2018-02-21T03:41:56.540Z,76.64
2018-02-21T03:42:56.483Z,76.74
2018-02-21T03:44:49.823Z,76.55
2018-02-21T03:45:49.779Z,76.17
2018-02-21T03:47:43.125Z,76.17
2018-02-21T03:48:43.075Z,76.64
2018-02-21T03:50:36.418Z,76.36
2018-02-21T03:51:36.370Z,76.74
2018-02-21T03:53:29.723Z,76.83
2018-02-21T03:54:29.695Z,76.55
2018-02-21T03:56:23.027Z,76.36
2018-02-21T03:57:22.976Z,75.70
2018-02-21T03:59:16.325Z,75.51
2018-02-21T04:00:16.282Z,75.79
2018-02-21T04:02:09.660Z,75.79
2018-02-21T04:03:09.606Z,75.13
2018-02-21T04:05:02.948Z,75.89
2018-02-21T04:06:02.904Z,75.51
2018-02-21T04:07:56.263Z,75.60
2018-02-21T04:08:56.214Z,76.17
2018-02-21T04:10:52.071Z,76.36
2018-02-21T04:11:52.034Z,76.45
2018-02-21T04:13:45.374Z,75.79
2018-02-21T04:14:45.330Z,75.60
2018-02-21T04:16:41.182Z,75.23
2018-02-21T04:17:41.127Z,75.60
2018-02-21T04:19:34.776Z,75.60
2018-02-21T04:20:34.659Z,75.51
2018-02-21T04:22:28.024Z,75.42
2018-02-21T04:23:27.979Z,75.42
2018-02-21T04:25:21.367Z,75.32
2018-02-21T04:26:21.290Z,75.79
2018-02-21T04:28:14.675Z,75.32
2018-02-21T04:29:14.627Z,75.60
2018-02-21T04:31:10.481Z,75.70
2018-02-21T04:32:10.433Z,75.38
2018-02-21T04:34:06.311Z,76.36
2018-02-21T04:35:06.273Z,76.32
2018-02-21T04:36:59.623Z,76.42
2018-02-21T04:37:59.577Z,76.36
2018-02-21T04:39:52.923Z,76.42
2018-02-21T04:40:52.876Z,76.14
2018-02-21T04:42:46.447Z,76.45
2018-02-21T04:43:46.398Z,76.36
2018-02-21T04:45:39.747Z,75.85
2018-02-21T04:46:39.700Z,76.32
2018-02-21T04:48:33.877Z,76.32
2018-02-21T04:49:33.864Z,75.95
2018-02-21T04:51:27.258Z,75.76
2018-02-21T04:52:27.208Z,75.95
2018-02-21T04:54:23.050Z,76.14
2018-02-21T04:55:23.007Z,76.32
2018-02-21T04:57:16.363Z,76.61
2018-02-21T04:58:16.312Z,76.32
2018-02-21T05:00:09.673Z,76.32
2018-02-21T05:01:09.615Z,76.32
2018-02-21T05:03:03.968Z,75.95
2018-02-21T05:04:03.925Z,76.14
2018-02-21T05:05:57.311Z,76.32
2018-02-21T05:06:57.256Z,75.95
2018-02-21T05:08:50.830Z,76.51
2018-02-21T05:09:50.776Z,77.26
2018-02-21T05:11:46.624Z,76.70
2018-02-21T05:12:46.581Z,76.32
2018-02-21T05:14:39.963Z,76.42
2018-02-21T05:15:39.888Z,75.95
2018-02-21T05:17:33.237Z,76.23
2018-02-21T05:18:33.190Z,76.23
2018-02-21T05:20:29.057Z,76.23
2018-02-21T05:21:28.998Z,76.32
2018-02-21T05:23:22.377Z,75.76
2018-02-21T05:24:22.324Z,75.85
2018-02-21T05:26:15.687Z,75.95
2018-02-21T05:27:15.630Z,76.23
2018-02-21T05:29:11.483Z,76.51
2018-02-21T05:30:11.438Z,76.04
2018-02-21T05:32:05.609Z,76.14
2018-02-21T05:33:05.562Z,75.47
2018-02-21T05:34:58.923Z,76.04
2018-02-21T05:35:58.864Z,75.47
2018-02-21T05:37:52.217Z,75.95
2018-02-21T05:38:52.160Z,76.42
2018-02-21T05:40:45.511Z,76.14
2018-02-21T05:41:45.460Z,76.04
2018-02-21T05:43:38.840Z,76.42
2018-02-21T05:44:38.761Z,76.98
2018-02-21T05:46:32.107Z,77.36
2018-02-21T05:47:32.066Z,77.26
2018-02-21T05:49:26.275Z,77.36
2018-02-21T05:50:26.222Z,77.64
2018-02-21T05:52:19.573Z,77.08
2018-02-21T05:53:19.520Z,77.26
2018-02-21T05:55:12.867Z,77.64
2018-02-21T05:56:12.823Z,78.02
2018-02-21T05:58:06.177Z,77.93
2018-02-21T05:59:06.117Z,78.02
2018-02-21T06:00:59.465Z,77.64
2018-02-21T06:01:59.418Z,77.64
2018-02-21T06:03:52.765Z,77.26
2018-02-21T06:04:52.719Z,77.36
2018-02-21T06:06:48.558Z,77.74
2018-02-21T06:07:48.513Z,78.02
2018-02-21T06:09:44.367Z,77.83
2018-02-21T06:10:44.315Z,78.12
2018-02-21T06:12:37.654Z,78.87
2018-02-21T06:13:37.619Z,79.06
2018-02-21T06:15:33.472Z,78.59
2018-02-21T06:16:33.419Z,77.74
2018-02-21T06:18:29.330Z,77.55
2018-02-21T06:19:29.222Z,77.45
2018-02-21T06:21:22.573Z,77.32
2018-02-21T06:22:22.557Z,77.32
2018-02-21T06:24:18.381Z,78.17
2018-02-21T06:25:18.328Z,77.70
2018-02-21T06:27:11.684Z,78.21
2018-02-21T06:28:11.630Z,78.02
2018-02-21T06:30:04.975Z,78.12
2018-02-21T06:31:04.924Z,78.50
2018-02-21T06:32:58.294Z,77.74
2018-02-21T06:33:58.225Z,78.02
2018-02-21T06:35:51.614Z,78.68
2018-02-21T06:36:51.552Z,79.06
2018-02-21T06:38:44.905Z,78.68
2018-02-21T06:39:44.852Z,78.87
2018-02-21T06:41:40.733Z,79.06
2018-02-21T06:42:40.684Z,79.35
2018-02-21T06:44:34.083Z,78.78
2018-02-21T06:45:34.031Z,78.78
2018-02-21T06:47:27.368Z,78.31
2018-02-21T06:48:27.333Z,78.68
2018-02-21T06:50:20.692Z,77.74
2018-02-21T06:51:20.625Z,77.74
2018-02-21T06:53:13.984Z,77.26
2018-02-21T06:54:13.936Z,77.08
2018-02-21T06:56:09.830Z,76.32
2018-02-21T06:57:09.749Z,76.51
2018-02-21T06:59:03.124Z,76.79
2018-02-21T07:00:03.059Z,77.08
2018-02-21T07:01:56.417Z,77.26
2018-02-21T07:02:56.355Z,77.36
2018-02-21T07:04:49.702Z,77.26
2018-02-21T07:05:49.653Z,77.17
2018-02-21T07:07:45.506Z,77.08
2018-02-21T07:08:45.451Z,77.17
2018-02-21T07:10:38.811Z,77.17
2018-02-21T07:11:38.765Z,76.61
2018-02-21T07:13:32.116Z,76.42
2018-02-21T07:14:32.071Z,77.17
2018-02-21T07:16:25.421Z,76.42
2018-02-21T07:17:25.382Z,76.51
2018-02-21T07:19:21.231Z,76.79
2018-02-21T07:20:21.192Z,76.51
2018-02-21T07:22:14.561Z,76.51
2018-02-21T07:23:14.514Z,76.61
2018-02-21T07:25:07.859Z,76.42
2018-02-21T07:26:07.811Z,76.32
2018-02-21T07:28:01.176Z,75.28
2018-02-21T07:29:01.129Z,75.70
2018-02-21T07:30:54.498Z,75.04
2018-02-21T07:31:54.439Z,74.76
2018-02-21T07:33:47.800Z,74.95
2018-02-21T07:34:47.748Z,74.66
2018-02-21T07:36:41.099Z,74.57
2018-02-21T07:37:41.056Z,74.38
2018-02-21T07:39:34.407Z,74.47
2018-02-21T07:40:34.370Z,74.38
2018-02-21T07:42:27.719Z,74.19
2018-02-21T07:43:27.678Z,74.47
2018-02-21T07:45:23.577Z,74.19
2018-02-21T07:46:23.488Z,74.28
2018-02-21T07:48:16.834Z,74.47
2018-02-21T07:49:16.788Z,74.66
2018-02-21T07:51:10.141Z,74.38
2018-02-21T07:52:10.086Z,74.76
2018-02-21T07:54:03.434Z,74.09
2018-02-21T07:55:03.386Z,73.62
2018-02-21T07:56:56.733Z,73.43
2018-02-21T07:57:56.692Z,73.33
2018-02-21T07:59:50.036Z,73.33
2018-02-21T08:00:49.985Z,73.05
2018-02-21T08:02:43.343Z,73.24
2018-02-21T08:03:43.295Z,72.96
2018-02-21T08:05:36.663Z,72.90
2018-02-21T08:06:36.599Z,72.52
2018-02-21T08:08:29.941Z,72.62
2018-02-21T08:09:29.886Z,72.71
2018-02-21T08:11:23.229Z,72.52
2018-02-21T08:12:23.190Z,72.24
2018-02-21T08:14:19.034Z,71.58
2018-02-21T08:15:18.989Z,71.30
2018-02-21T08:17:12.342Z,71.39
2018-02-21T08:18:12.295Z,71.01
2018-02-21T08:20:05.658Z,70.44
2018-02-21T08:21:05.613Z,71.23
2018-02-21T08:22:05.591Z,70.95
2018-02-21T08:23:05.563Z,70.76
2018-02-21T08:24:05.532Z,71.04
2018-02-21T08:25:05.503Z,70.76
2018-02-21T08:26:05.480Z,70.76
2018-02-21T08:27:05.499Z,70.86
2018-02-21T08:28:05.419Z,70.86
2018-02-21T08:29:05.394Z,70.76
2018-02-21T08:30:05.367Z,71.42
2018-02-21T08:31:05.340Z,71.33
2018-02-21T08:32:05.315Z,71.23
2018-02-21T08:33:05.303Z,70.67
2018-02-21T08:34:05.256Z,70.67
2018-02-21T08:35:05.228Z,70.76
2018-02-21T08:36:05.209Z,70.39
2018-02-21T08:37:05.176Z,70.20
2018-02-21T08:38:05.149Z,70.39
2018-02-21T08:39:05.118Z,70.10
2018-02-21T08:40:05.092Z,70.20
2018-02-21T08:41:05.069Z,69.82
2018-02-21T08:42:05.044Z,70.39
2018-02-21T08:43:05.015Z,70.57
2018-02-21T08:44:04.986Z,70.48
2018-02-21T08:45:04.958Z,70.95
2018-02-21T08:46:04.930Z,71.42
2018-02-21T08:47:04.901Z,71.52
2018-02-21T08:48:04.878Z,71.71
2018-02-21T08:49:04.845Z,71.42
2018-02-21T08:50:04.825Z,71.61
2018-02-21T08:51:04.795Z,71.52
2018-02-21T08:52:04.771Z,71.61
2018-02-21T08:53:04.750Z,71.99
2018-02-21T08:54:04.707Z,72.18
2018-02-21T08:55:04.680Z,71.99
2018-02-21T08:56:04.678Z,72.18
2018-02-21T08:57:04.629Z,72.75
2018-02-21T08:58:04.598Z,72.09
2018-02-21T08:59:04.576Z,72.28
2018-02-21T09:00:04.586Z,72.28
2018-02-21T09:01:04.517Z,72.56
2018-02-21T09:02:04.492Z,73.22
2018-02-21T09:03:04.463Z,72.66
2018-02-21T09:04:04.438Z,72.94
2018-02-21T09:05:04.410Z,72.94
2018-02-21T09:06:04.378Z,73.32
2018-02-21T09:07:04.351Z,73.41
2018-02-21T09:08:04.326Z,73.41
2018-02-21T09:09:04.297Z,73.18
2018-02-21T09:10:04.270Z,72.94
2018-02-21T09:11:04.243Z,73.03
2018-02-21T09:12:04.213Z,73.22
2018-02-21T09:13:04.190Z,73.13
2018-02-21T09:14:04.183Z,73.03
2018-02-21T09:15:04.129Z,73.22
2018-02-21T09:16:04.101Z,73.32
2018-02-21T09:17:04.099Z,73.22
2018-02-21T09:18:04.052Z,73.32
2018-02-21T09:19:04.021Z,73.69
2018-02-21T09:20:04.016Z,73.98
2018-02-21T09:21:03.966Z,73.60
2018-02-21T09:22:03.943Z,73.60
2018-02-21T09:23:03.915Z,73.88
2018-02-21T09:24:03.886Z,73.79
2018-02-21T09:25:03.856Z,72.75
2018-02-21T09:26:03.838Z,72.28
2018-02-21T09:27:03.800Z,71.61
2018-02-21T09:28:03.775Z,71.71
2018-02-21T09:29:03.751Z,71.42
2018-02-21T09:30:03.715Z,70.95
2018-02-21T09:31:03.692Z,71.33
2018-02-21T09:32:03.692Z,71.33
2018-02-21T09:33:03.634Z,70.76
2018-02-21T09:34:03.606Z,70.67
2018-02-21T09:35:03.581Z,71.33
2018-02-21T09:36:03.556Z,71.42
2018-02-21T09:37:03.565Z,71.04
2018-02-21T09:38:03.500Z,71.23
2018-02-21T09:39:03.471Z,71.14
2018-02-21T09:40:03.442Z,71.23
2018-02-21T09:41:03.418Z,71.14
2018-02-21T09:42:03.390Z,71.33
2018-02-21T09:43:03.361Z,71.33
2018-02-21T09:44:03.339Z,71.52
2018-02-21T09:45:03.309Z,71.42
2018-02-21T09:46:03.286Z,72.09
2018-02-21T09:47:03.253Z,71.99
2018-02-21T09:48:03.222Z,71.90
2018-02-21T09:49:03.203Z,71.80
2018-02-21T09:50:03.175Z,72.28
2018-02-21T09:51:03.142Z,72.28
2018-02-21T09:52:03.114Z,71.33
2018-02-21T09:53:03.086Z,71.52
2018-02-21T09:54:03.057Z,71.33
2018-02-21T09:55:03.031Z,71.52
2018-02-21T09:56:03.008Z,71.14
2018-02-21T09:57:02.977Z,71.14
2018-02-21T09:58:02.948Z,71.23
2018-02-21T09:59:02.920Z,71.23
2018-02-21T10:00:02.895Z,71.46
2018-02-21T10:01:02.864Z,70.79
2018-02-21T10:02:02.839Z,70.61
2018-02-21T10:03:02.810Z,70.89
2018-02-21T10:04:02.789Z,70.98
2018-02-21T10:05:02.762Z,71.27
2018-02-21T10:06:02.773Z,70.89
2018-02-21T10:07:02.743Z,71.17
2018-02-21T10:08:02.675Z,70.98
2018-02-21T10:09:02.649Z,71.17
2018-02-21T10:10:02.620Z,70.98
2018-02-21T10:11:02.598Z,70.89
2018-02-21T10:12:02.574Z,71.17
2018-02-21T10:13:02.538Z,71.36
2018-02-21T10:14:02.517Z,71.46
2018-02-21T10:15:02.484Z,70.98
2018-02-21T10:16:02.458Z,70.51
2018-02-21T10:17:02.434Z,70.14
2018-02-21T10:18:02.406Z,70.23
2018-02-21T10:19:02.374Z,70.23
2018-02-21T10:20:02.351Z,70.23
2018-02-21T10:21:02.323Z,70.14
2018-02-21T10:22:02.295Z,70.32
2018-02-21T10:23:02.274Z,70.04
2018-02-21T10:24:02.242Z,70.04
2018-02-21T10:25:02.212Z,70.14
2018-02-21T10:26:02.185Z,70.23
2018-02-21T10:27:02.158Z,69.66
2018-02-21T10:28:02.133Z,69.66
2018-02-21T10:29:02.106Z,69.85
2018-02-21T10:30:02.077Z,69.57
2018-02-21T10:31:02.048Z,69.95
2018-02-21T10:32:02.022Z,70.23
2018-02-21T10:33:01.997Z,70.45
2018-02-21T10:34:01.970Z,69.70
2018-02-21T10:35:01.942Z,68.84
2018-02-21T10:36:01.915Z,68.65
2018-02-21T10:37:01.886Z,68.37
2018-02-21T10:38:01.866Z,68.46
2018-02-21T10:39:01.866Z,68.21
2018-02-21T10:40:01.808Z,68.31
2018-02-21T10:41:01.783Z,67.46
2018-02-21T10:42:01.753Z,67.65
2018-02-21T10:43:01.728Z,67.65
2018-02-21T10:44:01.702Z,68.31
2018-02-21T10:45:01.673Z,67.46
2018-02-21T10:46:01.650Z,67.55
2018-02-21T10:47:01.623Z,66.51
2018-02-21T10:48:01.596Z,66.16
2018-02-21T10:49:01.572Z,66.26
2018-02-21T10:50:01.544Z,65.69
2018-02-21T10:51:01.519Z,65.78
2018-02-21T10:52:01.497Z,64.93
2018-02-21T10:53:01.462Z,64.74
2018-02-21T10:54:01.436Z,64.36
2018-02-21T10:55:01.415Z,64.97
2018-02-21T10:56:01.389Z,64.40
2018-02-21T10:57:01.362Z,64.11
2018-02-21T10:58:01.333Z,62.97
2018-02-21T10:59:01.306Z,62.69
2018-02-21T11:00:01.284Z,62.40
2018-02-21T11:01:01.261Z,61.83
2018-02-21T11:02:01.238Z,61.27
2018-02-21T11:03:01.212Z,61.74
2018-02-21T11:04:01.182Z,60.89
2018-02-21T11:05:01.159Z,60.13
2018-02-21T11:06:01.133Z,59.94
2018-02-21T11:07:01.102Z,59.66
2018-02-21T11:08:01.079Z,59.08
2018-02-21T11:09:01.049Z,60.22
2018-02-21T11:10:01.025Z,60.22
2018-02-21T11:11:00.999Z,60.31
2018-02-21T11:12:00.975Z,60.60
2018-02-21T11:13:00.950Z,60.22
2018-02-21T11:14:00.977Z,61.08
2018-02-21T11:15:00.904Z,60.70
2018-02-21T11:16:00.878Z,59.94
2018-02-21T11:17:00.850Z,59.94
2018-02-21T11:18:00.851Z,60.22
2018-02-21T11:19:00.799Z,60.22
2018-02-21T11:20:00.782Z,59.84
2018-02-21T11:21:00.750Z,60.22
2018-02-21T11:22:00.717Z,60.22
2018-02-21T11:23:00.699Z,59.75
2018-02-21T11:24:00.669Z,59.08
2018-02-21T11:25:00.652Z,58.70
2018-02-21T11:26:00.616Z,58.80
2018-02-21T11:27:00.590Z,57.95
2018-02-21T11:28:00.570Z,58.42
2018-02-21T11:29:00.542Z,58.33
2018-02-21T11:30:00.517Z,58.33
2018-02-21T11:31:00.490Z,58.80
2018-02-21T11:32:00.471Z,58.42
2018-02-21T11:33:00.447Z,58.42
2018-02-21T11:34:00.418Z,58.33
2018-02-21T11:35:00.398Z,58.61
2018-02-21T11:36:00.363Z,58.89
2018-02-21T11:37:00.337Z,58.51
2018-02-21T11:38:00.311Z,58.86
2018-02-21T11:39:00.286Z,59.27
2018-02-21T11:40:00.268Z,59.66
2018-02-21T11:41:00.239Z,59.66
2018-02-21T11:42:00.211Z,59.56
2018-02-21T11:43:00.183Z,58.89
2018-02-21T11:44:00.159Z,59.27
2018-02-21T11:45:00.133Z,59.27
2018-02-21T11:46:00.105Z,59.44
2018-02-21T11:47:00.078Z,59.66
2018-02-21T11:48:00.068Z,59.15
2018-02-21T11:49:00.028Z,59.66
2018-02-21T11:50:00.003Z,59.66
2018-02-21T11:51:00.005Z,59.94
2018-02-21T11:51:59.953Z,60.03
2018-02-21T11:52:59.926Z,59.66
2018-02-21T11:53:59.905Z,59.08
2018-02-21T11:54:59.876Z,58.33
2018-02-21T11:55:59.872Z,58.33
2018-02-21T11:56:59.839Z,57.95
2018-02-21T11:57:59.802Z,57.95
2018-02-21T11:58:59.796Z,57.95
2018-02-21T11:59:59.748Z,58.23
2018-02-21T12:00:59.722Z,58.23
2018-02-21T12:01:59.721Z,57.59
2018-02-21T12:02:59.702Z,57.69
2018-02-21T12:03:59.643Z,56.84
2018-02-21T12:04:59.626Z,55.96
2018-02-21T12:05:59.594Z,55.96
2018-02-21T12:06:59.568Z,56.55
2018-02-21T12:07:59.549Z,56.65
2018-02-21T12:08:59.524Z,56.55
2018-02-21T12:09:59.521Z,56.65
2018-02-21T12:10:59.473Z,56.74
2018-02-21T12:11:59.445Z,55.89
2018-02-21T12:12:59.413Z,56.27
2018-02-21T12:13:59.397Z,55.79
2018-02-21T12:14:59.366Z,55.51
2018-02-21T12:15:59.341Z,55.51
2018-02-21T12:16:59.317Z,54.75
2018-02-21T12:17:59.309Z,53.99
2018-02-21T12:18:59.268Z,53.33
2018-02-21T12:20:00.221Z,52.85
2018-02-21T12:20:59.214Z,52.85
2018-02-21T12:21:59.186Z,53.52
2018-02-21T12:22:59.176Z,53.89
2018-02-21T12:23:59.145Z,54.46
2018-02-21T12:24:59.110Z,55.10
2018-02-21T12:25:59.098Z,55.76
2018-02-21T12:26:59.060Z,56.62
2018-02-21T12:27:59.036Z,56.36
2018-02-21T12:28:59.012Z,56.55
2018-02-21T12:29:58.987Z,56.46
2018-02-21T12:30:58.960Z,56.55
2018-02-21T12:31:58.934Z,55.98
2018-02-21T12:32:58.911Z,56.46
2018-02-21T12:33:58.885Z,55.79
2018-02-21T12:34:58.915Z,55.98
2018-02-21T12:35:58.832Z,55.82
2018-02-21T12:36:58.822Z,55.82
2018-02-21T12:37:58.791Z,55.16
2018-02-21T12:38:58.767Z,54.78
2018-02-21T12:39:58.743Z,55.44
2018-02-21T12:40:58.713Z,54.97
2018-02-21T12:41:58.709Z,54.39
2018-02-21T12:42:58.660Z,54.02
2018-02-21T12:43:58.633Z,53.92
2018-02-21T12:44:58.608Z,53.64
2018-02-21T12:45:58.584Z,53.54
2018-02-21T12:46:58.564Z,53.54
2018-02-21T12:47:58.532Z,53.64
2018-02-21T12:48:58.511Z,53.61
2018-02-21T12:49:58.483Z,53.70
2018-02-21T12:50:58.456Z,53.52
2018-02-21T12:51:58.435Z,54.56
2018-02-21T12:52:58.405Z,54.18
2018-02-21T12:53:58.383Z,54.56
2018-02-21T12:54:58.360Z,54.56
2018-02-21T12:55:58.337Z,54.75
2018-02-21T12:56:58.308Z,54.72
2018-02-21T12:57:58.295Z,54.82
2018-02-21T12:58:58.263Z,54.44
2018-02-21T12:59:58.275Z,55.29
2018-02-21T13:00:58.206Z,55.38
2018-02-21T13:01:58.183Z,54.82
2018-02-21T13:02:58.157Z,54.53
2018-02-21T13:03:58.129Z,54.06
2018-02-21T13:04:58.105Z,54.53
2018-02-21T13:05:58.122Z,53.70
2018-02-21T13:06:58.052Z,54.08
2018-02-21T13:07:58.027Z,53.52
2018-02-21T13:08:58.000Z,53.89
2018-02-21T13:09:57.975Z,54.56
2018-02-21T13:10:57.953Z,54.37
2018-02-21T13:11:57.972Z,54.56
2018-02-21T13:12:57.902Z,54.37
2018-02-21T13:13:57.930Z,54.66
2018-02-21T13:14:57.871Z,53.70
2018-02-21T13:15:57.828Z,53.52
2018-02-21T13:16:57.810Z,53.99
2018-02-21T13:17:57.779Z,53.04
2018-02-21T13:18:57.748Z,52.85
2018-02-21T13:19:57.723Z,52.66
2018-02-21T13:20:57.702Z,52.47
2018-02-21T13:21:57.673Z,52.28
2018-02-21T13:22:57.650Z,52.37
2018-02-21T13:23:57.630Z,52.19
2018-02-21T13:24:57.607Z,52.85
2018-02-21T13:25:57.571Z,52.76
2018-02-21T13:26:57.546Z,53.04
2018-02-21T13:27:57.522Z,53.04
2018-02-21T13:28:57.496Z,52.95
2018-02-21T13:29:57.477Z,53.70
2018-02-21T13:30:57.453Z,53.70
2018-02-21T13:31:57.434Z,53.42
2018-02-21T13:32:57.422Z,53.52
2018-02-21T13:33:57.376Z,53.35
2018-02-21T13:34:57.341Z,53.04
2018-02-21T13:35:57.373Z,53.33
2018-02-21T13:36:57.298Z,52.78
2018-02-21T13:37:57.270Z,52.69
2018-02-21T13:38:57.249Z,52.97
2018-02-21T13:39:57.219Z,52.85
2018-02-21T13:40:57.203Z,52.37
2018-02-21T13:41:57.164Z,52.37
2018-02-21T13:42:57.144Z,52.09
2018-02-21T13:43:57.125Z,52.47
2018-02-21T13:44:57.096Z,52.47
2018-02-21T13:45:57.075Z,52.37
2018-02-21T13:46:57.058Z,52.50
2018-02-21T13:47:57.021Z,52.56
2018-02-21T13:48:56.989Z,52.00
2018-02-21T13:49:56.967Z,52.19
2018-02-21T13:50:56.944Z,51.90
2018-02-21T13:51:56.927Z,52.50
2018-02-21T13:52:56.902Z,52.12
2018-02-21T13:53:56.860Z,52.00
2018-02-21T13:54:56.838Z,51.83
2018-02-21T13:55:56.816Z,51.81
2018-02-21T13:56:56.789Z,51.64
2018-02-21T13:57:56.763Z,52.12
2018-02-21T13:58:56.740Z,51.64
2018-02-21T13:59:56.712Z,51.55
2018-02-21T14:00:56.739Z,51.26
2018-02-21T14:01:56.660Z,51.36
2018-02-21T14:02:56.641Z,51.45
2018-02-21T14:03:56.620Z,50.98
2018-02-21T14:04:56.590Z,51.14
2018-02-21T14:05:56.573Z,51.05
2018-02-21T14:06:56.536Z,51.24
2018-02-21T14:07:56.515Z,51.43
2018-02-21T14:08:56.493Z,51.33
2018-02-21T14:09:56.458Z,50.76
2018-02-21T14:10:56.474Z,50.76
2018-02-21T14:11:56.411Z,50.67
2018-02-21T14:12:56.381Z,51.05
2018-02-21T14:13:56.359Z,50.76
2018-02-21T14:14:56.333Z,50.48
2018-02-21T14:15:56.306Z,50.01
2018-02-21T14:16:56.284Z,50.20
2018-02-21T14:17:56.259Z,50.38
2018-02-21T14:18:56.229Z,50.01
2018-02-21T14:19:56.204Z,50.67
2018-02-21T14:20:56.179Z,50.67
2018-02-21T14:21:56.152Z,50.01
2018-02-21T14:22:56.131Z,50.57
2018-02-21T14:23:56.115Z,50.48
2018-02-21T14:24:56.152Z,50.76
2018-02-21T14:25:56.095Z,50.83
2018-02-21T14:26:56.030Z,50.36
2018-02-21T14:27:56.021Z,50.55
2018-02-21T14:28:55.982Z,49.88
2018-02-21T14:29:55.953Z,50.55
2018-02-21T14:30:55.959Z,51.21
2018-02-21T14:31:55.901Z,50.64
2018-02-21T14:32:55.878Z,51.68
2018-02-21T14:33:55.855Z,51.59
2018-02-21T14:34:55.825Z,51.97
2018-02-21T14:35:55.798Z,52.06
2018-02-21T14:36:55.770Z,51.59
2018-02-21T14:37:55.742Z,51.59
2018-02-21T14:38:55.721Z,51.59